Time;durP1;ratioP1;P1;durP2;ratioP2;P2;SDS_P1;SDS_P2;PMS_P1;PMS_P2;Temp;Humidity;BMP_temperature;BMP_pressure;BME280_temperature;BME280_humidity;BME280_pressure;Samples;Min_cycle;Max_cycle;Signal;HPM_P1;HPM_P2
2022/10/31 00:01:25;;;;;;;3.97;3.10;;;11.60;99.90;;;;;;5032906;28;20461;-67
2022/10/31 00:03:51;;;;;;;3.93;2.43;;;11.60;99.90;;;;;;5033138;28;20206;-68
2022/10/31 00:06:18;;;;;;;4.22;3.90;;;11.60;99.90;;;;;;5032940;28;20469;-67
2022/10/31 00:08:45;;;;;;;6.28;2.88;;;11.60;99.90;;;;;;5033078;28;20206;-68
2022/10/31 00:11:13;;;;;;;3.03;2.53;;;11.60;99.90;;;;;;5032521;28;20210;-66
2022/10/31 00:13:40;;;;;;;3.33;2.60;;;11.60;99.90;;;;;;5032932;28;20228;-66
2022/10/31 00:16:14;;;;;;;4.00;2.75;;;11.60;99.90;;;;;;5032527;28;20485;-68
2022/10/31 00:18:41;;;;;;;3.53;2.88;;;11.60;99.90;;;;;;5032834;28;20251;-67
2022/10/31 00:21:08;;;;;;;6.33;3.60;;;11.50;99.90;;;;;;5032370;28;20230;-68
2022/10/31 00:23:35;;;;;;;4.63;3.27;;;11.50;99.90;;;;;;5032260;28;20461;-68
2022/10/31 00:26:02;;;;;;;3.50;2.60;;;11.50;99.90;;;;;;5032358;28;20485;-67
2022/10/31 00:28:31;;;;;;;3.60;1.95;;;11.50;99.90;;;;;;5032227;28;20515;-68
2022/10/31 00:31:00;;;;;;;3.60;2.97;;;11.40;99.90;;;;;;5032320;28;20202;-67
2022/10/31 00:33:26;;;;;;;7.53;2.57;;;11.40;99.90;;;;;;5032199;28;20253;-68
2022/10/31 00:35:53;;;;;;;2.60;2.10;;;11.40;99.90;;;;;;5032570;28;20850;-68
2022/10/31 00:38:20;;;;;;;3.33;1.97;;;11.40;99.90;;;;;;5032475;28;20476;-68
2022/10/31 00:40:46;;;;;;;3.15;2.40;;;11.40;99.90;;;;;;5032284;28;20499;-68
2022/10/31 00:43:13;;;;;;;7.20;3.17;;;11.40;99.90;;;;;;5031620;28;20207;-68
2022/10/31 00:45:42;;;;;;;3.28;2.50;;;11.40;99.90;;;;;;5032332;28;20222;-68
2022/10/31 00:48:08;;;;;;;2.33;2.13;;;11.30;99.90;;;;;;5032112;28;20677;-68
2022/10/31 00:50:35;;;;;;;6.43;2.83;;;11.30;99.90;;;;;;5032061;28;20464;-67
2022/10/31 00:53:02;;;;;;;3.72;2.35;;;11.30;99.90;;;;;;5031815;28;20206;-68
2022/10/31 00:55:29;;;;;;;2.72;2.15;;;11.30;99.90;;;;;;5032169;28;20253;-68
2022/10/31 00:57:55;;;;;;;4.97;2.53;;;11.30;99.90;;;;;;5032070;28;20202;-67
2022/10/31 01:00:22;;;;;;;7.43;3.05;;;11.20;99.90;;;;;;5031818;28;20246;-68
2022/10/31 01:02:50;;;;;;;4.15;2.80;;;11.20;99.90;;;;;;5031573;28;20209;-68
2022/10/31 01:05:17;;;;;;;4.07;2.30;;;11.20;99.90;;;;;;5031808;28;20230;-68
2022/10/31 01:07:44;;;;;;;3.97;2.88;;;11.20;99.90;;;;;;5031988;28;20202;-68
2022/10/31 01:10:12;;;;;;;3.42;2.42;;;11.10;99.90;;;;;;5031539;28;20195;-67
2022/10/31 01:12:39;;;;;;;2.95;2.35;;;11.10;99.90;;;;;;5031368;28;20210;-68
2022/10/31 01:15:07;;;;;;;2.83;2.15;;;11.10;99.90;;;;;;5031435;28;20226;-68
2022/10/31 01:17:34;;;;;;;2.97;2.20;;;11.10;99.90;;;;;;5031793;28;20206;-67
2022/10/31 01:20:02;;;;;;;3.00;2.53;;;11.10;99.90;;;;;;5031399;28;20218;-68
2022/10/31 01:22:29;;;;;;;2.75;2.25;;;11.10;99.90;;;;;;5031155;28;20587;-68
2022/10/31 01:24:56;;;;;;;5.47;2.97;;;11.00;99.90;;;;;;5031401;28;20226;-67
2022/10/31 01:27:22;;;;;;;4.07;2.50;;;11.00;99.90;;;;;;5031365;28;20213;-67
2022/10/31 01:29:49;;;;;;;2.20;2.00;;;11.00;99.90;;;;;;5031530;28;20199;-67
2022/10/31 01:32:16;;;;;;;4.65;2.30;;;11.00;99.90;;;;;;5030732;28;20202;-68
2022/10/31 01:34:42;;;;;;;3.85;2.22;;;11.00;99.90;;;;;;5031340;28;20222;-66
2022/10/31 01:37:10;;;;;;;5.63;2.78;;;11.00;99.90;;;;;;5031164;28;20202;-67
2022/10/31 01:39:37;;;;;;;3.85;2.45;;;11.00;99.90;;;;;;5031025;28;20206;-67
2022/10/31 01:42:04;;;;;;;3.40;1.98;;;10.90;99.90;;;;;;5029863;28;20217;-68
2022/10/31 01:44:54;;;;;;;1.70;1.60;;;10.90;99.90;;;;;;5031253;28;20218;-68
2022/10/31 01:47:28;;;;;;;2.75;2.10;;;10.90;99.90;;;;;;5031272;28;20206;-67
2022/10/31 01:49:58;;;;;;;3.55;2.40;;;10.90;99.90;;;;;;5031026;28;20206;-68
2022/10/31 01:52:28;;;;;;;4.05;2.63;;;10.90;99.90;;;;;;5030523;28;20199;-68
2022/10/31 01:55:00;;;;;;;3.07;2.63;;;10.90;99.90;;;;;;5031083;28;20227;-68
2022/10/31 01:57:28;;;;;;;3.40;2.10;;;10.90;99.90;;;;;;5031096;28;20465;-67
2022/10/31 01:59:57;;;;;;;3.90;2.42;;;10.90;99.90;;;;;;5030820;28;20222;-67
2022/10/31 02:02:26;;;;;;;3.15;2.38;;;10.90;99.90;;;;;;5030213;28;20210;-68
2022/10/31 02:04:54;;;;;;;3.13;2.70;;;10.80;99.90;;;;;;5030734;28;20764;-67
2022/10/31 02:07:26;;;;;;;5.00;3.05;;;10.80;99.90;;;;;;5030721;28;20205;-68
2022/10/31 02:09:54;;;;;;;3.15;2.60;;;10.70;99.90;;;;;;5030668;28;20217;-68
2022/10/31 02:12:21;;;;;;;5.05;2.33;;;10.70;99.90;;;;;;5030246;28;20202;-68
2022/10/31 02:14:48;;;;;;;2.35;2.05;;;10.70;99.90;;;;;;5030757;28;20733;-68
2022/10/31 02:17:15;;;;;;;4.47;2.88;;;10.70;99.90;;;;;;5030539;28;20206;-68
2022/10/31 02:19:51;;;;;;;3.05;2.20;;;10.70;99.90;;;;;;5030510;28;20199;-67
2022/10/31 02:22:27;;;;;;;4.90;3.25;;;10.70;99.90;;;;;;5030019;28;20202;-66
2022/10/31 02:25:22;;;;;;;3.10;2.72;;;10.60;99.90;;;;;;5030476;28;20221;-67
2022/10/31 02:28:16;;;;;;;3.30;3.00;;;10.60;99.90;;;;;;5030941;28;20203;-67
2022/10/31 02:31:01;;;;;;;2.78;2.45;;;10.60;99.90;;;;;;5030444;28;20457;-67
2022/10/31 02:33:35;;;;;;;2.65;2.45;;;10.60;99.90;;;;;;5030108;28;20225;-68
2022/10/31 02:36:11;;;;;;;2.92;2.63;;;10.60;99.90;;;;;;5030500;28;20222;-67
2022/10/31 02:38:48;;;;;;;3.40;2.65;;;10.60;99.90;;;;;;5030941;28;20206;-67
2022/10/31 02:41:20;;;;;;;4.72;2.65;;;10.60;99.90;;;;;;5029972;28;20571;-68
2022/10/31 02:44:01;;;;;;;2.90;2.60;;;10.50;99.90;;;;;;5030647;28;20204;-67
2022/10/31 02:46:35;;;;;;;3.17;2.55;;;10.50;99.90;;;;;;5030797;28;20206;-67
2022/10/31 02:49:09;;;;;;;2.47;2.28;;;10.50;99.90;;;;;;5030463;28;20201;-67
2022/10/31 02:51:36;;;;;;;3.50;2.80;;;10.50;99.90;;;;;;5030481;28;20198;-68
2022/10/31 02:54:03;;;;;;;3.58;2.70;;;10.50;99.90;;;;;;5034289;28;20203;-68
2022/10/31 02:56:29;;;;;;;4.30;2.10;;;10.50;99.90;;;;;;5034631;28;20206;-68
2022/10/31 02:59:00;;;;;;;2.63;2.03;;;10.50;99.90;;;;;;5034533;28;20202;-68
2022/10/31 03:02:06;;;;;;;3.58;2.17;;;10.50;99.90;;;;;;5033964;28;20233;-67
2022/10/31 03:04:54;;;;;;;4.20;2.70;;;10.40;99.90;;;;;;4973088;28;20529;-67
2022/10/31 03:07:29;;;;;;;8.63;2.10;;;10.40;99.90;;;;;;5031844;28;20206;-68
2022/10/31 03:10:04;;;;;;;3.20;1.90;;;10.40;99.90;;;;;;5033988;28;20202;-68
2022/10/31 03:12:38;;;;;;;2.72;2.00;;;10.40;99.90;;;;;;5033633;28;20238;-68
2022/10/31 03:15:14;;;;;;;4.43;2.60;;;10.30;99.90;;;;;;5033797;28;20226;-67
2022/10/31 03:17:51;;;;;;;3.75;2.30;;;10.40;99.90;;;;;;5034166;28;20229;-67
2022/10/31 03:20:21;;;;;;;3.90;2.38;;;10.30;99.90;;;;;;5033661;28;20202;-67
2022/10/31 03:22:48;;;;;;;2.55;2.20;;;10.30;99.90;;;;;;5033416;28;20203;-68
2022/10/31 03:25:16;;;;;;;2.50;2.30;;;10.30;99.90;;;;;;5033512;28;20226;-68
2022/10/31 03:27:45;;;;;;;2.80;2.58;;;10.30;99.90;;;;;;5033878;28;20235;-67
2022/10/31 03:30:13;;;;;;;5.28;2.55;;;10.30;99.90;;;;;;5033444;28;20206;-68
2022/10/31 03:32:45;;;;;;;2.95;2.35;;;10.20;99.90;;;;;;5033177;28;20203;-68
2022/10/31 03:35:16;;;;;;;2.95;2.05;;;10.20;99.90;;;;;;5033359;28;20634;-68
2022/10/31 03:37:43;;;;;;;3.42;2.60;;;10.20;99.90;;;;;;5033661;28;20217;-68
2022/10/31 03:40:13;;;;;;;2.50;2.28;;;10.20;99.90;;;;;;5033328;28;20202;-67
2022/10/31 03:42:44;;;;;;;3.95;2.60;;;10.20;99.90;;;;;;5032923;28;20198;-68
2022/10/31 03:45:14;;;;;;;3.63;3.10;;;10.20;99.90;;;;;;5033301;28;20222;-67
2022/10/31 03:47:44;;;;;;;2.63;2.10;;;10.20;99.90;;;;;;5033516;28;20218;-68
2022/10/31 03:50:14;;;;;;;4.25;2.30;;;10.10;99.90;;;;;;5032948;28;20217;-68
2022/10/31 03:52:46;;;;;;;2.85;2.58;;;10.10;99.90;;;;;;5032610;28;20203;-66
2022/10/31 03:55:18;;;;;;;4.15;2.80;;;10.10;99.90;;;;;;5033027;28;20233;-67
2022/10/31 03:57:52;;;;;;;4.82;2.40;;;10.10;99.90;;;;;;5033266;28;20202;-67
2022/10/31 04:00:19;;;;;;;2.72;2.10;;;10.10;99.90;;;;;;5033026;28;20212;-68
2022/10/31 04:02:52;;;;;;;3.67;2.75;;;10.00;99.90;;;;;;5032726;28;20202;-68
2022/10/31 04:05:21;;;;;;;3.08;2.50;;;10.10;99.90;;;;;;5032038;28;20230;-68
2022/10/31 04:07:51;;;;;;;2.88;2.60;;;10.00;99.90;;;;;;5033016;28;20206;-67
2022/10/31 04:10:19;;;;;;;4.22;2.95;;;10.00;99.90;;;;;;5033033;28;20214;-67
2022/10/31 04:12:54;;;;;;;5.32;2.17;;;10.00;99.90;;;;;;5032374;28;20205;-68
2022/10/31 04:15:21;;;;;;;2.30;2.10;;;10.00;99.90;;;;;;5032819;28;20229;-67
2022/10/31 04:17:53;;;;;;;1.88;1.77;;;10.00;99.90;;;;;;5032992;28;20211;-68
2022/10/31 04:20:29;;;;;;;2.50;2.30;;;10.00;99.90;;;;;;5032461;28;20211;-67
2022/10/31 04:22:56;;;;;;;3.55;2.50;;;10.00;99.90;;;;;;5032278;28;20202;-67
2022/10/31 04:25:23;;;;;;;3.15;2.00;;;10.00;99.90;;;;;;5032749;28;20713;-66
2022/10/31 04:27:50;;;;;;;4.85;2.60;;;10.00;99.90;;;;;;5032698;28;20217;-68
2022/10/31 04:30:16;;;;;;;3.22;2.38;;;10.00;99.90;;;;;;5032419;28;20669;-68
2022/10/31 04:32:43;;;;;;;2.83;2.15;;;10.00;99.90;;;;;;5032020;28;20647;-66
2022/10/31 04:35:11;;;;;;;5.90;2.85;;;10.00;99.90;;;;;;5032250;28;20717;-66
2022/10/31 04:37:38;;;;;;;4.10;2.63;;;9.90;99.90;;;;;;5032418;28;20674;-67
2022/10/31 04:40:06;;;;;;;2.92;2.00;;;9.90;99.90;;;;;;5032207;28;20209;-68
2022/10/31 04:42:33;;;;;;;10.18;2.72;;;10.00;99.90;;;;;;5031815;28;20229;-67
2022/10/31 04:44:59;;;;;;;2.33;2.05;;;9.90;99.90;;;;;;5032121;28;20575;-67
2022/10/31 04:47:26;;;;;;;2.45;2.25;;;9.90;99.90;;;;;;5032437;28;20819;-68
2022/10/31 04:49:53;;;;;;;3.78;2.13;;;9.80;99.90;;;;;;5032013;28;20217;-68
2022/10/31 04:52:21;;;;;;;3.47;2.13;;;9.90;99.90;;;;;;5031559;28;20658;-68
2022/10/31 04:54:47;;;;;;;3.88;2.30;;;9.80;99.90;;;;;;5031997;28;20218;-67
2022/10/31 04:57:14;;;;;;;3.03;2.55;;;9.80;99.90;;;;;;5031955;28;20202;-68
2022/10/31 04:59:41;;;;;;;2.42;2.13;;;9.80;99.90;;;;;;5030636;28;20202;-68
2022/10/31 05:02:08;;;;;;;2.60;2.00;;;9.70;99.90;;;;;;5031348;28;20237;-67
2022/10/31 05:04:34;;;;;;;2.55;2.35;;;9.80;99.90;;;;;;5031910;28;20237;-67
2022/10/31 05:07:01;;;;;;;2.38;2.17;;;9.80;99.90;;;;;;5031924;28;20210;-67
2022/10/31 05:09:29;;;;;;;2.67;2.35;;;9.80;99.90;;;;;;5031677;28;20210;-67
2022/10/31 05:11:56;;;;;;;3.50;2.40;;;9.70;99.90;;;;;;5031507;28;20198;-67
2022/10/31 05:14:22;;;;;;;3.65;2.80;;;9.70;99.90;;;;;;5031514;28;20219;-65
2022/10/31 05:16:49;;;;;;;3.20;2.78;;;9.70;99.90;;;;;;5031806;28;20209;-67
2022/10/31 05:19:16;;;;;;;2.50;1.98;;;9.60;99.90;;;;;;5031414;28;20555;-67
2022/10/31 05:21:42;;;;;;;2.80;2.50;;;9.60;99.90;;;;;;5031178;28;20226;-67
2022/10/31 05:24:10;;;;;;;2.22;2.03;;;9.70;99.90;;;;;;5031323;28;20744;-67
2022/10/31 05:26:38;;;;;;;11.00;3.05;;;9.70;99.90;;;;;;5031755;28;20199;-67
2022/10/31 05:29:04;;;;;;;4.82;2.45;;;9.60;99.90;;;;;;5046127;28;20575;-67
2022/10/31 05:31:31;;;;;;;3.17;2.13;;;9.60;99.90;;;;;;5050787;28;20201;-67
2022/10/31 05:33:58;;;;;;;3.42;2.15;;;9.60;99.90;;;;;;5051299;28;20561;-66
2022/10/31 05:36:25;;;;;;;5.07;2.72;;;9.50;99.90;;;;;;5051075;28;20703;-67
2022/10/31 05:38:52;;;;;;;3.85;2.40;;;9.50;99.90;;;;;;5051231;28;20202;-68
2022/10/31 05:41:18;;;;;;;2.63;2.35;;;9.50;99.90;;;;;;5050568;28;20237;-67
2022/10/31 05:43:47;;;;;;;3.50;2.70;;;9.40;99.90;;;;;;5051551;28;20198;-67
2022/10/31 05:46:14;;;;;;;2.30;2.10;;;9.40;99.90;;;;;;5051215;28;20206;-67
2022/10/31 05:48:40;;;;;;;3.40;2.45;;;9.40;99.90;;;;;;5051597;28;20202;-68
2022/10/31 05:51:07;;;;;;;3.13;2.30;;;9.40;99.90;;;;;;5065225;22;20238;-94
2022/10/31 05:53:34;;;;;;;3.75;2.15;;;9.40;99.90;;;;;;5042808;28;20202;-94
2022/10/31 05:56:01;;;;;;;3.88;2.47;;;9.40;99.90;;;;;;5042322;28;20202;-94
2022/10/31 05:58:28;;;;;;;2.90;2.10;;;9.40;99.90;;;;;;5039952;28;20207;-94
2022/10/31 06:00:56;;;;;;;3.50;2.33;;;9.30;99.90;;;;;;5039079;28;20228;-95
2022/10/31 06:03:23;;;;;;;3.58;2.75;;;9.30;99.90;;;;;;5038601;28;20225;-94
2022/10/31 06:05:52;;;;;;;3.00;2.20;;;9.30;99.90;;;;;;5039145;28;20226;-94
2022/10/31 06:08:19;;;;;;;2.58;2.33;;;9.30;99.90;;;;;;5039837;28;20583;-94
2022/10/31 06:10:46;;;;;;;4.43;2.85;;;9.30;99.90;;;;;;5041924;28;20223;-94
2022/10/31 06:13:13;;;;;;;3.83;2.60;;;9.20;99.90;;;;;;5047027;28;20198;-94
2022/10/31 06:15:42;;;;;;;5.55;2.40;;;9.30;99.90;;;;;;5042921;28;20229;-94
2022/10/31 06:18:10;;;;;;;3.70;2.25;;;9.20;99.90;;;;;;5038941;28;20669;-94
2022/10/31 06:20:37;;;;;;;4.05;2.67;;;9.20;99.90;;;;;;5039245;28;20309;-94
2022/10/31 06:23:06;;;;;;;3.65;2.70;;;9.30;99.90;;;;;;5039603;28;20229;-94
2022/10/31 06:25:33;;;;;;;4.45;3.30;;;9.20;99.90;;;;;;5044016;28;20289;-94
2022/10/31 06:28:00;;;;;;;3.83;2.78;;;9.30;99.90;;;;;;5039707;28;20221;-93
2022/10/31 06:30:27;;;;;;;5.90;3.20;;;9.30;99.90;;;;;;5039176;28;20313;-94
2022/10/31 06:32:54;;;;;;;4.85;2.72;;;9.30;99.90;;;;;;5039608;28;20205;-94
2022/10/31 06:35:22;;;;;;;7.88;3.50;;;9.30;99.90;;;;;;5040638;28;20241;-93
2022/10/31 06:37:53;;;;;;;3.75;3.30;;;9.30;99.90;;;;;;5040095;28;20208;-94
2022/10/31 06:40:20;;;;;;;4.13;3.03;;;9.40;99.90;;;;;;5040629;28;20230;-94
2022/10/31 06:42:47;;;;;;;3.60;2.80;;;9.40;99.90;;;;;;5038414;28;20235;-94
2022/10/31 06:45:14;;;;;;;3.30;2.33;;;9.40;99.90;;;;;;5041716;28;20208;-94
2022/10/31 06:47:41;;;;;;;2.47;2.28;;;9.40;99.90;;;;;;5039977;28;20198;-94
2022/10/31 06:50:08;;;;;;;2.35;2.15;;;9.50;99.90;;;;;;5043770;28;20248;-93
2022/10/31 06:52:37;;;;;;;3.00;2.03;;;9.50;99.90;;;;;;5043549;28;20225;-93
2022/10/31 06:55:03;;;;;;;4.40;3.47;;;9.50;99.90;;;;;;5041354;28;20672;-94
2022/10/31 06:57:30;;;;;;;3.22;2.40;;;9.50;99.90;;;;;;5043532;28;20202;-93
2022/10/31 06:59:57;;;;;;;2.83;2.40;;;9.60;99.90;;;;;;5044440;28;20237;-94
2022/10/31 07:02:24;;;;;;;3.35;2.45;;;9.60;99.90;;;;;;5045798;28;20233;-93
2022/10/31 07:04:51;;;;;;;2.58;2.33;;;9.70;99.90;;;;;;5043685;28;20687;-94
2022/10/31 07:07:20;;;;;;;2.42;2.20;;;9.90;99.90;;;;;;5040036;28;20198;-93
2022/10/31 07:09:49;;;;;;;2.47;2.25;;;10.10;99.90;;;;;;5037806;28;20372;-93
2022/10/31 07:12:17;;;;;;;4.65;3.20;;;10.20;99.90;;;;;;5041822;28;20207;-93
2022/10/31 07:14:43;;;;;;;3.47;2.33;;;10.40;99.90;;;;;;5041303;28;20202;-95
2022/10/31 07:17:10;;;;;;;2.42;2.10;;;10.40;99.90;;;;;;5043322;28;20225;-95
2022/10/31 07:19:48;;;;;;;2.70;2.17;;;10.40;99.90;;;;;;5046339;28;20206;-94
2022/10/31 07:22:15;;;;;;;4.60;2.15;;;10.40;99.90;;;;;;5045131;28;20219;-93
2022/10/31 07:24:42;;;;;;;3.75;2.60;;;10.50;99.90;;;;;;5041675;28;20730;-93
2022/10/31 07:27:10;;;;;;;2.40;1.70;;;10.60;99.90;;;;;;5049553;28;20268;-94
2022/10/31 07:29:37;;;;;;;3.15;2.35;;;10.50;99.90;;;;;;5053242;28;20274;-94
2022/10/31 07:32:04;;;;;;;2.20;2.00;;;10.60;99.90;;;;;;5044172;28;20202;-93
2022/10/31 07:34:31;;;;;;;2.60;2.40;;;10.50;99.90;;;;;;5040505;28;20213;-94
2022/10/31 07:36:58;;;;;;;2.30;2.08;;;10.50;99.90;;;;;;5042826;28;20221;-94
2022/10/31 07:40:13;;;;;;;2.95;2.75;;;10.60;99.90;;;;;;5043543;28;20640;-93
2022/10/31 07:42:43;;;;;;;2.95;2.50;;;10.70;99.90;;;;;;5048836;28;20223;-94
2022/10/31 07:45:12;;;;;;;9.35;2.88;;;10.80;99.90;;;;;;5047148;28;20206;-94
2022/10/31 07:47:40;;;;;;;3.70;2.80;;;10.90;99.90;;;;;;5045872;28;20206;-94
2022/10/31 07:50:07;;;;;;;3.20;2.35;;;10.90;99.90;;;;;;5043866;28;20252;-94
2022/10/31 07:52:34;;;;;;;3.75;2.70;;;11.00;99.90;;;;;;5043906;28;20234;-94
2022/10/31 07:55:02;;;;;;;5.53;3.30;;;11.10;99.90;;;;;;5041157;28;20210;-94
2022/10/31 07:57:29;;;;;;;2.88;2.10;;;11.20;99.90;;;;;;5040369;28;20640;-94
2022/10/31 07:59:57;;;;;;;3.20;2.85;;;11.30;99.90;;;;;;5039681;28;20316;-94
2022/10/31 08:02:24;;;;;;;5.43;3.38;;;11.40;99.90;;;;;;5038350;28;20246;-94
2022/10/31 08:04:51;;;;;;;4.60;3.40;;;11.50;99.90;;;;;;5038905;28;20297;-94
2022/10/31 08:07:18;;;;;;;3.25;2.90;;;11.70;99.90;;;;;;5039544;28;20204;-94
2022/10/31 08:09:45;;;;;;;6.03;2.53;;;11.90;99.90;;;;;;5043729;23;20797;-66
2022/10/31 08:12:12;;;;;;;3.00;2.00;;;12.00;99.90;;;;;;5030559;28;20194;-63
2022/10/31 08:14:39;;;;;;;3.03;2.80;;;12.20;99.90;;;;;;5031277;28;20246;-63
2022/10/31 08:17:07;;;;;;;5.05;2.85;;;12.30;99.90;;;;;;5030639;28;20210;-64
2022/10/31 08:19:34;;;;;;;3.47;3.07;;;12.50;99.90;;;;;;5031149;28;20210;-64
2022/10/31 08:22:00;;;;;;;3.30;3.00;;;12.60;99.90;;;;;;5029778;28;21322;-64
2022/10/31 08:24:27;;;;;;;4.20;3.27;;;12.70;99.90;;;;;;5029981;28;20481;-64
2022/10/31 08:26:54;;;;;;;2.83;2.40;;;12.90;99.90;;;;;;5030007;28;20468;-64
2022/10/31 08:29:20;;;;;;;5.23;3.50;;;13.00;99.90;;;;;;5029890;28;20464;-64
2022/10/31 08:31:47;;;;;;;5.97;3.13;;;13.00;99.90;;;;;;5029218;28;20469;-64
2022/10/31 08:34:15;;;;;;;6.73;3.30;;;13.10;99.90;;;;;;5029699;28;20481;-64
2022/10/31 08:36:44;;;;;;;4.93;3.37;;;13.20;99.90;;;;;;5030041;28;21328;-63
2022/10/31 08:39:11;;;;;;;4.10;3.37;;;13.30;99.90;;;;;;5029897;28;20515;-64
2022/10/31 08:41:38;;;;;;;3.70;2.77;;;13.30;99.90;;;;;;5029507;28;20461;-63
2022/10/31 08:44:05;;;;;;;3.90;3.30;;;13.40;99.90;;;;;;5029293;28;21190;-64
2022/10/31 08:46:32;;;;;;;4.20;3.80;;;13.50;99.90;;;;;;5029751;28;20468;-64
2022/10/31 08:48:59;;;;;;;4.40;3.40;;;13.60;99.90;;;;;;5029599;28;20558;-64
2022/10/31 08:51:27;;;;;;;3.47;2.97;;;13.70;99.90;;;;;;5028943;28;20472;-64
2022/10/31 08:53:54;;;;;;;3.30;3.00;;;13.80;99.90;;;;;;5029796;28;20465;-64
2022/10/31 08:56:22;;;;;;;5.43;4.00;;;13.90;99.90;;;;;;5029299;28;20502;-64
2022/10/31 08:58:48;;;;;;;4.00;3.60;;;14.00;99.90;;;;;;5028888;28;21302;-64
2022/10/31 09:01:15;;;;;;;4.20;3.77;;;14.10;99.90;;;;;;5028489;28;20463;-63
2022/10/31 09:03:42;;;;;;;5.00;3.90;;;14.20;99.90;;;;;;5029271;28;20485;-64
2022/10/31 09:06:09;;;;;;;4.37;3.00;;;14.20;99.90;;;;;;5028873;28;20492;-64
2022/10/31 09:08:37;;;;;;;9.80;4.30;;;14.30;99.90;;;;;;5029127;28;20469;-63
2022/10/31 09:11:06;;;;;;;3.53;3.20;;;14.40;99.90;;;;;;5028568;28;20476;-64
2022/10/31 09:13:33;;;;;;;3.87;3.50;;;14.40;99.90;;;;;;5028595;28;21051;-64
2022/10/31 09:16:00;;;;;;;6.33;4.30;;;14.50;99.90;;;;;;5028700;28;20488;-63
2022/10/31 09:18:28;;;;;;;5.00;3.80;;;14.50;99.90;;;;;;5028953;28;20460;-65
2022/10/31 09:20:55;;;;;;;4.10;3.67;;;14.60;99.90;;;;;;5028489;28;20523;-63
2022/10/31 09:23:23;;;;;;;4.60;3.60;;;14.70;99.90;;;;;;5028251;28;21014;-64
2022/10/31 09:25:53;;;;;;;4.80;3.30;;;14.80;99.90;;;;;;5028499;28;20508;-64
2022/10/31 09:28:21;;;;;;;7.23;4.03;;;14.90;99.90;;;;;;5028498;28;20469;-64
2022/10/31 09:30:49;;;;;;;5.07;4.03;;;14.90;99.90;;;;;;5028766;28;20461;-64
2022/10/31 09:33:17;;;;;;;4.93;4.00;;;14.90;99.90;;;;;;5028124;28;20834;-64
2022/10/31 09:35:44;;;;;;;5.43;3.23;;;15.00;99.90;;;;;;5028483;28;20912;-64
2022/10/31 09:38:14;;;;;;;4.50;3.27;;;15.10;99.90;;;;;;5028211;28;20471;-63
2022/10/31 09:40:42;;;;;;;3.47;3.17;;;15.10;99.90;;;;;;5028847;28;20865;-64
2022/10/31 09:43:16;;;;;;;4.00;3.60;;;15.10;99.90;;;;;;5027725;28;20485;-64
2022/10/31 09:45:54;;;;;;;3.73;3.10;;;15.20;99.90;;;;;;5028405;28;20485;-64
2022/10/31 09:48:38;;;;;;;3.43;3.13;;;15.30;99.90;;;;;;5028502;28;20547;-64
2022/10/31 09:51:09;;;;;;;4.37;3.80;;;15.40;99.90;;;;;;5028325;28;20465;-64
2022/10/31 09:53:40;;;;;;;5.17;3.87;;;15.50;99.90;;;;;;5028143;28;20955;-62
2022/10/31 09:56:10;;;;;;;3.83;3.47;;;15.60;99.90;;;;;;5028407;28;21166;-64
2022/10/31 09:58:43;;;;;;;4.50;3.90;;;15.70;99.90;;;;;;5028721;28;20465;-64
2022/10/31 10:01:31;;;;;;;4.27;3.50;;;15.90;99.90;;;;;;5027742;28;20497;-62
2022/10/31 10:04:02;;;;;;;4.17;3.83;;;16.00;99.90;;;;;;5027971;28;20485;-64
2022/10/31 10:06:33;;;;;;;4.43;3.00;;;16.10;99.90;;;;;;5028610;28;20469;-64
2022/10/31 10:09:01;;;;;;;5.10;3.40;;;16.20;99.90;;;;;;5028339;28;20469;-64
2022/10/31 10:11:54;;;;;;;4.00;3.57;;;16.30;99.90;;;;;;5027848;28;20839;-63
2022/10/31 10:14:33;;;;;;;7.37;3.80;;;16.30;99.90;;;;;;5025304;28;20484;-64
2022/10/31 10:17:14;;;;;;;6.30;4.03;;;16.40;99.90;;;;;;5028668;28;20456;-64
2022/10/31 10:19:58;;;;;;;4.33;3.37;;;16.50;99.90;;;;;;5028492;28;20459;-64
2022/10/31 10:22:36;;;;;;;3.40;3.10;;;16.60;99.90;;;;;;5028665;28;20468;-64
2022/10/31 10:25:17;;;;;;;5.40;3.10;;;16.70;99.90;;;;;;5028013;28;20485;-64
2022/10/31 10:27:51;;;;;;;5.67;4.00;;;16.80;99.90;;;;;;5028358;28;20480;-64
2022/10/31 10:30:21;;;;;;;5.20;3.80;;;16.90;99.90;;;;;;5028218;28;20784;-64
2022/10/31 10:32:50;;;;;;;5.43;3.57;;;17.00;99.90;;;;;;5027684;28;20465;-65
2022/10/31 10:35:23;;;;;;;5.00;3.80;;;17.00;99.90;;;;;;5028022;28;20992;-64
2022/10/31 10:37:52;;;;;;;5.30;3.50;;;17.00;99.90;;;;;;5027875;28;20464;-64
2022/10/31 10:40:22;;;;;;;7.30;4.40;;;17.00;99.90;;;;;;5028871;28;20468;-64
2022/10/31 10:48:41;;;;;;;4.90;4.20;;;16.90;99.90;;;;;;5030254;28;20558;-66
2022/10/31 10:51:14;;;;;;;5.60;4.77;;;16.90;99.90;;;;;;5030023;28;20471;-66
2022/10/31 10:54:00;;;;;;;7.37;4.00;;;16.90;99.90;;;;;;5030976;28;20457;-66
2022/10/31 10:56:38;;;;;;;5.30;4.10;;;16.80;99.90;;;;;;5030819;28;20457;-65
2022/10/31 10:59:05;;;;;;;7.67;4.77;;;16.80;99.90;;;;;;5030764;28;20484;-64
2022/10/31 11:01:33;;;;;;;7.37;4.60;;;16.80;99.90;;;;;;5030467;28;20761;-64
2022/10/31 11:04:02;;;;;;;6.20;4.40;;;16.70;99.90;;;;;;5030026;28;20496;-64
2022/10/31 11:06:28;;;;;;;5.23;3.70;;;16.70;99.90;;;;;;5030683;28;20840;-63
2022/10/31 11:08:55;;;;;;;4.60;4.20;;;16.80;99.90;;;;;;5030613;28;20975;-64
2022/10/31 11:11:29;;;;;;;5.83;4.20;;;16.90;99.90;;;;;;5030077;28;20465;-64
2022/10/31 11:14:00;;;;;;;5.50;4.30;;;17.00;99.90;;;;;;5032934;28;20457;-65
2022/10/31 11:16:35;;;;;;;5.53;4.20;;;17.30;99.90;;;;;;5034469;28;20465;-63
2022/10/31 11:19:15;;;;;;;4.90;4.40;;;17.70;99.90;;;;;;5034498;28;20460;-64
2022/10/31 11:21:44;;;;;;;6.00;5.33;;;18.00;99.90;;;;;;5033666;28;20461;-64
2022/10/31 11:24:16;;;;;;;8.63;4.93;;;18.20;99.90;;;;;;5034110;28;20488;-63
2022/10/31 11:26:45;;;;;;;5.83;4.60;;;18.40;99.90;;;;;;5033917;28;20461;-63
2022/10/31 11:29:16;;;;;;;8.47;4.63;;;18.50;99.90;;;;;;5033864;28;20461;-63
2022/10/31 11:31:46;;;;;;;6.93;4.80;;;18.50;99.90;;;;;;5032263;28;20456;-63
2022/10/31 11:34:27;;;;;;;4.70;4.20;;;18.60;99.90;;;;;;5033787;28;20817;-64
2022/10/31 11:36:54;;;;;;;6.23;4.40;;;18.70;99.90;;;;;;5032520;28;20468;-65
2022/10/31 11:39:24;;;;;;;5.50;4.70;;;18.80;99.90;;;;;;5033957;28;20835;-63
2022/10/31 11:41:53;;;;;;;6.70;4.53;;;18.80;99.90;;;;;;5033483;28;20487;-65
2022/10/31 11:44:22;;;;;;;8.47;5.20;;;18.90;99.90;;;;;;5033822;28;20488;-64
2022/10/31 11:46:53;;;;;;;4.53;3.87;;;18.90;99.90;;;;;;5033768;28;20467;-64
2022/10/31 11:49:29;;;;;;;6.00;4.50;;;18.90;99.90;;;;;;5033526;28;20463;-64
2022/10/31 11:51:59;;;;;;;4.47;4.07;;;18.90;99.90;;;;;;5106211;22;20944;-67
2022/10/31 11:54:30;;;;;;;5.50;4.43;;;18.90;99.90;;;;;;5053052;28;20491;-67
2022/10/31 11:56:57;;;;;;;5.67;4.30;;;18.80;99.90;;;;;;5053941;28;20574;-66
2022/10/31 11:59:28;;;;;;;5.80;4.40;;;18.70;99.90;;;;;;5053027;28;20458;-66
2022/10/31 12:01:58;;;;;;;5.77;4.53;;;18.70;99.90;;;;;;5053048;28;20876;-67
2022/10/31 12:04:35;;;;;;;5.77;5.27;;;18.50;99.90;;;;;;5052808;28;20484;-66
2022/10/31 12:07:02;;;;;;;6.80;3.90;;;18.40;99.90;;;;;;5048573;28;20963;-67
2022/10/31 12:09:31;;;;;;;4.17;3.77;;;18.30;99.90;;;;;;5052591;28;20464;-66
2022/10/31 12:12:19;;;;;;;5.73;4.57;;;18.30;99.90;;;;;;5052489;28;20465;-66
2022/10/31 12:14:58;;;;;;;8.30;4.30;;;18.30;99.90;;;;;;5053039;28;20473;-66
2022/10/31 12:17:34;;;;;;;4.70;4.10;;;18.40;99.90;;;;;;5052559;28;20460;-67
2022/10/31 12:20:11;;;;;;;5.10;4.30;;;18.50;99.90;;;;;;5052946;28;20459;-66
2022/10/31 12:22:48;;;;;;;4.30;3.67;;;18.60;99.90;;;;;;5052746;28;20484;-66
2022/10/31 12:25:30;;;;;;;5.00;4.33;;;18.70;99.90;;;;;;5051689;28;20471;-67
2022/10/31 12:28:07;;;;;;;4.73;3.90;;;18.80;99.90;;;;;;5052817;28;20467;-67
2022/10/31 12:30:50;;;;;;;4.10;3.80;;;18.80;99.90;;;;;;5052850;28;20966;-68
2022/10/31 12:33:46;;;;;;;9.40;4.30;;;18.70;99.90;;;;;;5052027;28;20459;-68
2022/10/31 12:36:36;;;;;;;5.33;4.27;;;18.60;99.90;;;;;;5052339;28;20868;-67
2022/10/31 12:39:24;;;;;;;5.87;4.07;;;18.40;99.90;;;;;;5052385;28;20460;-68
2022/10/31 12:41:54;;;;;;;5.70;4.40;;;18.20;99.90;;;;;;5052144;28;20466;-68
2022/10/31 12:44:51;;;;;;;4.70;3.47;;;18.10;99.90;;;;;;5052058;28;20488;-68
2022/10/31 12:47:45;;;;;;;4.43;3.40;;;18.00;99.90;;;;;;5052055;28;20489;-67
2022/10/31 12:50:26;;;;;;;5.57;4.60;;;17.80;99.90;;;;;;5046350;28;20982;-68
2022/10/31 12:53:01;;;;;;;5.33;4.40;;;17.80;99.90;;;;;;5052153;28;20456;-67
2022/10/31 12:55:54;;;;;;;6.00;4.60;;;17.70;99.90;;;;;;5052069;28;21018;-68
2022/10/31 12:58:25;;;;;;;3.50;3.10;;;17.70;99.90;;;;;;5051916;28;20474;-68
2022/10/31 13:01:02;;;;;;;5.70;3.70;;;17.60;99.90;;;;;;5052208;28;20963;-67
2022/10/31 13:03:33;;;;;;;5.17;3.80;;;17.60;99.90;;;;;;5051726;28;20999;-67
2022/10/31 13:06:06;;;;;;;5.83;3.43;;;17.50;99.90;;;;;;5052353;28;20517;-67
2022/10/31 13:08:40;;;;;;;4.33;3.30;;;17.50;99.90;;;;;;5051671;28;20996;-67
2022/10/31 13:11:11;;;;;;;5.70;4.10;;;17.40;99.90;;;;;;5051727;28;20555;-67